Time;durP1;ratioP1;P1;durP2;ratioP2;P2;SDS_P1;SDS_P2;PMS_P1;PMS_P2;Temp;Humidity;BMP_temperature;BMP_pressure;BME280_temperature;BME280_humidity;BME280_pressure;Samples;Min_cycle;Max_cycle;Signal;HPM_P1;HPM_P2
2023/05/03 00:00:52;;;;;;;10.55;4.72;;;;;;;;;;5085126;28;20036;-71
2023/05/03 00:03:21;;;;;;;14.52;4.88;;;;;;;;;;5096272;28;20052;-70
2023/05/03 00:05:47;;;;;;;10.13;4.50;;;;;;;;;;5086726;28;20036;-70
2023/05/03 00:08:12;;;;;;;8.95;4.15;;;;;;;;;;5083138;28;20474;-70
2023/05/03 00:10:38;;;;;;;11.45;4.78;;;;;;;;;;5069849;28;20127;-70
2023/05/03 00:13:03;;;;;;;11.40;4.32;;;;;;;;;;5084625;28;20456;-70
2023/05/03 00:15:28;;;;;;;9.88;4.40;;;;;;;;;;5083119;28;20040;-70
2023/05/03 00:17:54;;;;;;;10.40;4.30;;;;;;;;;;5078611;28;20044;-70
2023/05/03 00:20:19;;;;;;;10.55;4.28;;;;;;;;;;5084110;28;20531;-70
2023/05/03 00:22:45;;;;;;;9.60;4.50;;;;;;;;;;5084464;28;20108;-70
2023/05/03 00:25:10;;;;;;;9.77;4.55;;;;;;;;;;5084420;28;20480;-71
2023/05/03 00:27:35;;;;;;;11.10;4.85;;;;;;;;;;5084052;28;20596;-70
2023/05/03 00:30:01;;;;;;;13.43;4.43;;;;;;;;;;5079431;28;20040;-70
2023/05/03 00:32:26;;;;;;;10.32;4.68;;;;;;;;;;5078815;28;20059;-70
2023/05/03 00:34:53;;;;;;;14.43;4.20;;;;;;;;;;5084904;28;20397;-70
2023/05/03 00:37:19;;;;;;;14.63;4.85;;;;;;;;;;5086510;28;20119;-71
2023/05/03 00:39:44;;;;;;;9.93;4.40;;;;;;;;;;5079891;28;20122;-71
2023/05/03 00:42:09;;;;;;;10.35;4.78;;;;;;;;;;5087652;28;20036;-70
2023/05/03 00:44:35;;;;;;;12.95;4.40;;;;;;;;;;5087825;28;20036;-70
2023/05/03 00:47:01;;;;;;;13.30;4.28;;;;;;;;;;5081606;28;20025;-70
2023/05/03 00:49:26;;;;;;;14.13;4.43;;;;;;;;;;5075760;28;20685;-70
2023/05/03 00:51:53;;;;;;;8.98;4.05;;;;;;;;;;5086211;28;20036;-70
2023/05/03 00:54:19;;;;;;;6.88;3.97;;;;;;;;;;5079115;28;20074;-70
2023/05/03 00:56:45;;;;;;;9.65;4.18;;;;;;;;;;5084457;28;20040;-71
2023/05/03 00:59:11;;;;;;;12.50;4.07;;;;;;;;;;5085763;28;20131;-70
2023/05/03 01:01:36;;;;;;;8.73;3.58;;;;;;;;;;5086441;28;20024;-71
2023/05/03 01:04:03;;;;;;;7.85;4.10;;;;;;;;;;5085876;28;20513;-70
2023/05/03 01:06:54;;;;;;;11.43;4.60;;;;;;;;;;5086141;28;20110;-70
2023/05/03 01:09:38;;;;;;;10.43;4.05;;;;;;;;;;5077370;28;20046;-70
2023/05/03 01:12:10;;;;;;;9.30;3.72;;;;;;;;;;5075759;28;20052;-70
2023/05/03 01:14:48;;;;;;;7.63;3.85;;;;;;;;;;5079098;28;20032;-71
2023/05/03 01:17:14;;;;;;;8.75;3.25;;;;;;;;;;5085753;28;20581;-70
2023/05/03 01:20:10;;;;;;;9.77;3.88;;;;;;;;;;5086618;28;20508;-70
2023/05/03 01:22:49;;;;;;;10.30;3.88;;;;;;;;;;5079888;28;20079;-70
2023/05/03 01:25:15;;;;;;;7.82;3.85;;;;;;;;;;5092321;28;20036;-70
2023/05/03 01:27:41;;;;;;;8.02;3.75;;;;;;;;;;5092434;28;20032;-70
2023/05/03 01:30:11;;;;;;;11.57;3.72;;;;;;;;;;5088065;28;20059;-70
2023/05/03 01:33:14;;;;;;;6.82;3.83;;;;;;;;;;5087573;28;20032;-70
2023/05/03 01:35:46;;;;;;;10.27;3.75;;;;;;;;;;5069316;28;20119;-70
2023/05/03 01:38:12;;;;;;;7.95;3.28;;;;;;;;;;5078903;28;20020;-71
2023/05/03 01:40:45;;;;;;;13.00;3.92;;;;;;;;;;5087360;28;20035;-71
2023/05/03 01:43:12;;;;;;;10.60;3.60;;;;;;;;;;5086751;28;20089;-70
2023/05/03 01:45:38;;;;;;;9.25;3.88;;;;;;;;;;5086766;28;20039;-71
2023/05/03 01:48:09;;;;;;;7.78;3.65;;;;;;;;;;5086584;28;20774;-71
2023/05/03 01:50:35;;;;;;;9.77;3.92;;;;;;;;;;5085491;28;20059;-70
2023/05/03 01:53:00;;;;;;;11.70;3.78;;;;;;;;;;5075093;28;20020;-71
2023/05/03 01:55:25;;;;;;;5.85;3.10;;;;;;;;;;5082270;28;20055;-70
2023/05/03 01:57:51;;;;;;;9.15;3.42;;;;;;;;;;5086028;28;20032;-70
2023/05/03 02:00:16;;;;;;;9.65;3.60;;;;;;;;;;5084844;28;20059;-71
2023/05/03 02:02:42;;;;;;;6.70;3.30;;;;;;;;;;5081320;28;20040;-70
2023/05/03 02:05:08;;;;;;;8.85;3.83;;;;;;;;;;5086276;28;20072;-70
2023/05/03 02:07:33;;;;;;;19.10;3.20;;;;;;;;;;5086882;28;20031;-70
2023/05/03 02:09:59;;;;;;;9.07;3.15;;;;;;;;;;5085529;28;20036;-70
2023/05/03 02:12:24;;;;;;;5.88;3.15;;;;;;;;;;5085620;28;20128;-70
2023/05/03 02:14:50;;;;;;;11.57;3.67;;;;;;;;;;5086934;28;20039;-71
2023/05/03 02:17:17;;;;;;;7.75;3.47;;;;;;;;;;5086260;28;20408;-70
2023/05/03 02:19:43;;;;;;;13.38;3.47;;;;;;;;;;5085247;28;20397;-70
2023/05/03 02:22:08;;;;;;;7.82;3.50;;;;;;;;;;5086086;28;20723;-70
2023/05/03 02:24:35;;;;;;;8.48;3.47;;;;;;;;;;5085700;28;20129;-70
2023/05/03 02:27:03;;;;;;;7.90;3.35;;;;;;;;;;5083308;28;20039;-70
2023/05/03 02:29:29;;;;;;;8.60;3.72;;;;;;;;;;5082479;28;20034;-70
2023/05/03 02:31:55;;;;;;;6.97;3.58;;;;;;;;;;5085743;28;20704;-70
2023/05/03 02:34:20;;;;;;;6.28;3.08;;;;;;;;;;5084901;28;20016;-70
2023/05/03 02:36:46;;;;;;;10.63;4.25;;;;;;;;;;5084747;28;20036;-70
2023/05/03 02:39:11;;;;;;;8.73;3.47;;;;;;;;;;5071813;28;20129;-70
2023/05/03 02:41:36;;;;;;;8.88;3.20;;;;;;;;;;5083921;28;20024;-70
2023/05/03 02:44:02;;;;;;;7.43;3.50;;;;;;;;;;5077982;28;20020;-70
2023/05/03 02:46:27;;;;;;;9.10;3.42;;;;;;;;;;5086628;28;20504;-70
2023/05/03 02:48:52;;;;;;;8.00;3.72;;;;;;;;;;5083922;28;20463;-70
2023/05/03 02:51:18;;;;;;;8.20;3.25;;;;;;;;;;5091625;28;20426;-70
2023/05/03 02:53:43;;;;;;;12.60;3.95;;;;;;;;;;5085721;28;20035;-70
2023/05/03 02:56:08;;;;;;;10.05;4.03;;;;;;;;;;5083778;28;20482;-70
2023/05/03 02:58:34;;;;;;;9.05;3.70;;;;;;;;;;5085190;28;20080;-70
2023/05/03 03:00:59;;;;;;;9.95;3.92;;;;;;;;;;5072546;28;20659;-70
2023/05/03 03:03:25;;;;;;;10.65;3.40;;;;;;;;;;5074543;28;20044;-70
2023/05/03 03:05:50;;;;;;;9.80;4.28;;;;;;;;;;5083701;28;20129;-70
2023/05/03 03:08:17;;;;;;;7.70;3.38;;;;;;;;;;5085908;28;20032;-70
2023/05/03 03:10:42;;;;;;;10.02;4.75;;;;;;;;;;5066363;28;20043;-70
2023/05/03 03:13:08;;;;;;;8.65;4.10;;;;;;;;;;5083214;28;20241;-70
2023/05/03 03:15:33;;;;;;;15.63;4.22;;;;;;;;;;5080926;28;20044;-70
2023/05/03 03:17:58;;;;;;;9.45;3.50;;;;;;;;;;5084109;28;20043;-70
2023/05/03 03:20:24;;;;;;;10.63;3.50;;;;;;;;;;5083454;28;20050;-70
2023/05/03 03:22:49;;;;;;;6.50;3.30;;;;;;;;;;5084015;28;20024;-70
2023/05/03 03:25:15;;;;;;;7.90;3.58;;;;;;;;;;5084693;28;20039;-70
2023/05/03 03:27:40;;;;;;;9.05;4.13;;;;;;;;;;5083467;28;20040;-70
2023/05/03 03:30:07;;;;;;;8.88;3.35;;;;;;;;;;5084760;28;20122;-70
2023/05/03 03:32:32;;;;;;;11.55;3.72;;;;;;;;;;5084217;28;20420;-70
2023/05/03 03:34:58;;;;;;;6.88;3.55;;;;;;;;;;5080037;28;20588;-70
2023/05/03 03:37:23;;;;;;;13.23;4.28;;;;;;;;;;5075146;28;20036;-70
2023/05/03 03:39:48;;;;;;;8.50;3.67;;;;;;;;;;5076825;28;20079;-70
2023/05/03 03:42:14;;;;;;;8.52;4.32;;;;;;;;;;5084849;28;20118;-70
2023/05/03 03:44:40;;;;;;;8.52;3.85;;;;;;;;;;5080244;28;20036;-70
2023/05/03 03:47:05;;;;;;;10.77;3.78;;;;;;;;;;5081575;28;20115;-70
2023/05/03 03:49:31;;;;;;;13.88;3.70;;;;;;;;;;5085098;28;20038;-70
2023/05/03 03:51:56;;;;;;;7.55;3.40;;;;;;;;;;5084272;28;20455;-70
2023/05/03 03:54:22;;;;;;;9.52;3.97;;;;;;;;;;5083412;28;20438;-70
2023/05/03 03:56:47;;;;;;;9.48;3.58;;;;;;;;;;5079237;28;20032;-70
2023/05/03 03:59:13;;;;;;;6.63;3.13;;;;;;;;;;5084642;28;20398;-70
2023/05/03 04:01:39;;;;;;;13.02;3.75;;;;;;;;;;5077901;28;20916;-70
2023/05/03 04:04:04;;;;;;;11.52;3.63;;;;;;;;;;5070470;28;20064;-70
2023/05/03 04:06:31;;;;;;;6.55;3.58;;;;;;;;;;5084852;28;20483;-70
2023/05/03 04:08:56;;;;;;;7.60;3.17;;;;;;;;;;5085309;28;20116;-70
2023/05/03 04:11:22;;;;;;;8.32;4.03;;;;;;;;;;5095291;28;20048;-70
2023/05/03 04:13:48;;;;;;;7.55;3.47;;;;;;;;;;5097177;28;20112;-70
2023/05/03 04:16:14;;;;;;;7.53;3.55;;;;;;;;;;5089259;28;20032;-70
2023/05/03 04:18:40;;;;;;;10.35;3.58;;;;;;;;;;5088804;28;20044;-70
2023/05/03 04:21:05;;;;;;;8.73;4.00;;;;;;;;;;5087752;28;20032;-70
2023/05/03 04:23:31;;;;;;;7.63;3.58;;;;;;;;;;5086820;28;20750;-70
2023/05/03 04:25:56;;;;;;;9.77;3.58;;;;;;;;;;5088221;28;20020;-70
2023/05/03 04:28:22;;;;;;;9.68;3.53;;;;;;;;;;5088994;28;20066;-70
2023/05/03 04:30:48;;;;;;;8.80;3.72;;;;;;;;;;5087793;28;20135;-70
2023/05/03 04:33:14;;;;;;;8.57;4.03;;;;;;;;;;5077003;28;20028;-71
2023/05/03 04:35:40;;;;;;;7.38;3.75;;;;;;;;;;5088128;28;20047;-70
2023/05/03 04:38:05;;;;;;;8.20;3.97;;;;;;;;;;5086286;28;20076;-70
2023/05/03 04:40:31;;;;;;;11.38;4.90;;;;;;;;;;5082024;28;20438;-70
2023/05/03 04:42:56;;;;;;;12.45;5.13;;;;;;;;;;5078217;28;20091;-70
2023/05/03 04:45:22;;;;;;;10.93;4.63;;;;;;;;;;5087802;28;20467;-70
2023/05/03 04:47:48;;;;;;;11.98;5.00;;;;;;;;;;5087648;28;20048;-70
2023/05/03 04:50:13;;;;;;;13.73;4.97;;;;;;;;;;5087988;28;20028;-71
2023/05/03 04:52:39;;;;;;;15.05;4.88;;;;;;;;;;5087841;28;20054;-70
2023/05/03 04:55:04;;;;;;;12.45;5.32;;;;;;;;;;5087906;28;20032;-70
2023/05/03 04:57:31;;;;;;;11.07;4.40;;;;;;;;;;5083938;28;20059;-70
2023/05/03 04:59:56;;;;;;;8.15;4.18;;;;;;;;;;5087291;28;20109;-70
2023/05/03 05:02:22;;;;;;;7.32;4.03;;;;;;;;;;5087673;28;20028;-70
2023/05/03 05:04:47;;;;;;;8.95;4.05;;;;;;;;;;5088665;28;20071;-70
2023/05/03 05:07:13;;;;;;;11.30;4.22;;;;;;;;;;5087310;28;20672;-70
2023/05/03 05:09:38;;;;;;;8.32;4.15;;;;;;;;;;5087643;28;20040;-70
2023/05/03 05:12:04;;;;;;;13.25;4.88;;;;;;;;;;5087565;28;20111;-70
2023/05/03 05:14:30;;;;;;;8.02;4.40;;;;;;;;;;5087675;28;20070;-70
2023/05/03 05:16:56;;;;;;;9.30;4.03;;;;;;;;;;5087531;28;20039;-70
2023/05/03 05:19:21;;;;;;;8.30;4.45;;;;;;;;;;5087758;28;20019;-70
2023/05/03 05:21:47;;;;;;;9.00;4.10;;;;;;;;;;5085681;28;20032;-70
2023/05/03 05:24:12;;;;;;;10.57;4.13;;;;;;;;;;5087398;28;20119;-70
2023/05/03 05:26:38;;;;;;;12.35;4.00;;;;;;;;;;5087429;28;20497;-70
2023/05/03 05:29:04;;;;;;;8.73;4.00;;;;;;;;;;5087603;28;20020;-70
2023/05/03 05:31:29;;;;;;;8.02;4.22;;;;;;;;;;5088200;28;20089;-70
2023/05/03 05:33:55;;;;;;;8.55;3.83;;;;;;;;;;5093866;28;20096;-70
2023/05/03 05:36:20;;;;;;;10.80;4.35;;;;;;;;;;5096106;28;20250;-70
2023/05/03 05:38:45;;;;;;;12.75;3.88;;;;;;;;;;5080227;28;20059;-70
2023/05/03 05:41:11;;;;;;;6.70;3.83;;;;;;;;;;5077048;28;20035;-70
2023/05/03 05:43:36;;;;;;;10.05;3.80;;;;;;;;;;5086630;28;20028;-70
2023/05/03 05:46:02;;;;;;;9.65;4.03;;;;;;;;;;5069239;28;20067;-70
2023/05/03 05:48:27;;;;;;;11.15;4.57;;;;;;;;;;5076887;28;20035;-70
2023/05/03 05:50:53;;;;;;;12.10;4.45;;;;;;;;;;5077999;28;20032;-70
2023/05/03 05:53:18;;;;;;;10.80;4.53;;;;;;;;;;5074827;28;20040;-70
2023/05/03 05:55:44;;;;;;;11.90;5.30;;;;;;;;;;5076073;28;20081;-70
2023/05/03 05:58:11;;;;;;;12.10;5.20;;;;;;;;;;5085993;28;20051;-70
2023/05/03 06:00:37;;;;;;;9.25;4.13;;;;;;;;;;5077198;28;20409;-70
2023/05/03 06:03:02;;;;;;;13.65;5.35;;;;;;;;;;5080962;28;20028;-70
2023/05/03 06:05:27;;;;;;;11.93;4.95;;;;;;;;;;5084942;28;20047;-70
2023/05/03 06:07:53;;;;;;;13.60;4.82;;;;;;;;;;5081699;28;20540;-71
2023/05/03 06:10:18;;;;;;;13.75;5.25;;;;;;;;;;5081602;28;20028;-71
2023/05/03 06:12:43;;;;;;;14.25;5.05;;;;;;;;;;5086182;28;20157;-71
2023/05/03 06:15:09;;;;;;;10.98;4.85;;;;;;;;;;5085968;28;20028;-71
2023/05/03 06:17:35;;;;;;;12.77;4.63;;;;;;;;;;5086234;28;20515;-71
2023/05/03 06:20:01;;;;;;;10.65;5.25;;;;;;;;;;5083853;28;20019;-71
2023/05/03 06:22:26;;;;;;;11.02;4.90;;;;;;;;;;5080273;28;20492;-71
2023/05/03 06:24:51;;;;;;;15.77;5.43;;;;;;;;;;5074255;28;20036;-71
2023/05/03 06:27:17;;;;;;;11.10;4.63;;;;;;;;;;5080700;28;20520;-71
2023/05/03 06:29:46;;;;;;;12.90;5.90;;;;;;;;;;5086126;28;20138;-71
2023/05/03 06:32:11;;;;;;;12.38;5.45;;;;;;;;;;5084844;28;20525;-71
2023/05/03 06:34:36;;;;;;;12.32;6.15;;;;;;;;;;5083996;28;20067;-71
2023/05/03 06:37:02;;;;;;;8.32;4.57;;;;;;;;;;5084528;28;20020;-71
2023/05/03 06:39:27;;;;;;;16.52;5.00;;;;;;;;;;5076215;28;20059;-71
2023/05/03 06:41:53;;;;;;;12.55;5.40;;;;;;;;;;5081206;28;20032;-72
2023/05/03 06:44:18;;;;;;;11.52;4.53;;;;;;;;;;5079131;28;20055;-71
2023/05/03 06:46:44;;;;;;;12.75;6.00;;;;;;;;;;5080768;28;20032;-71
2023/05/03 06:49:09;;;;;;;11.18;5.43;;;;;;;;;;5084555;28;20059;-72
2023/05/03 06:51:35;;;;;;;16.73;6.15;;;;;;;;;;5085638;28;20032;-71
2023/05/03 06:54:05;;;;;;;16.52;6.60;;;;;;;;;;5080975;28;20059;-71
2023/05/03 06:56:35;;;;;;;18.58;5.88;;;;;;;;;;5082701;28;20185;-71
2023/05/03 06:59:01;;;;;;;15.82;7.50;;;;;;;;;;5082405;28;20086;-71
2023/05/03 07:01:26;;;;;;;13.18;5.68;;;;;;;;;;5084851;28;20027;-71
2023/05/03 07:03:52;;;;;;;14.65;6.07;;;;;;;;;;5083837;28;20440;-71
2023/05/03 07:06:18;;;;;;;28.02;7.43;;;;;;;;;;5079957;28;20043;-71
2023/05/03 07:08:43;;;;;;;17.85;6.25;;;;;;;;;;5071284;28;20592;-71
2023/05/03 07:11:09;;;;;;;14.90;5.88;;;;;;;;;;5067221;28;20051;-71
2023/05/03 07:13:34;;;;;;;15.65;5.88;;;;;;;;;;5073252;28;20020;-71
2023/05/03 07:16:00;;;;;;;14.10;7.40;;;;;;;;;;5081545;28;20149;-71
2023/05/03 07:18:26;;;;;;;11.65;5.72;;;;;;;;;;5079937;28;20038;-71
2023/05/03 07:20:51;;;;;;;17.55;7.20;;;;;;;;;;5073496;28;20047;-72
2023/05/03 07:23:17;;;;;;;19.77;6.30;;;;;;;;;;5073011;28;20124;-72
2023/05/03 07:25:42;;;;;;;13.45;6.50;;;;;;;;;;5076487;28;20134;-71
2023/05/03 07:28:08;;;;;;;17.05;5.97;;;;;;;;;;5082173;28;20436;-72
2023/05/03 07:30:33;;;;;;;19.98;6.85;;;;;;;;;;5080872;28;20066;-72
2023/05/03 07:32:58;;;;;;;20.08;6.82;;;;;;;;;;5075184;28;20070;-70
2023/05/03 07:35:25;;;;;;;16.17;6.63;;;;;;;;;;5080087;28;20039;-70
2023/05/03 07:37:51;;;;;;;13.07;5.47;;;;;;;;;;5080238;28;20173;-70
2023/05/03 07:40:16;;;;;;;16.35;7.13;;;;;;;;;;5069896;28;20126;-70
2023/05/03 07:42:42;;;;;;;20.52;7.07;;;;;;;;;;5080334;28;20055;-70
2023/05/03 07:45:08;;;;;;;16.70;7.25;;;;;;;;;;5067482;28;20496;-70
2023/05/03 07:47:36;;;;;;;19.38;6.80;;;;;;;;;;5081435;28;20104;-70
2023/05/03 07:50:04;;;;;;;16.67;7.13;;;;;;;;;;5082298;28;20116;-70
2023/05/03 07:52:29;;;;;;;16.42;7.20;;;;;;;;;;5082172;28;20035;-70
2023/05/03 07:54:55;;;;;;;17.38;7.40;;;;;;;;;;5081192;28;20235;-70
2023/05/03 07:57:22;;;;;;;15.75;7.05;;;;;;;;;;5081753;28;20036;-70
2023/05/03 07:59:48;;;;;;;16.13;6.95;;;;;;;;;;5081916;28;20080;-70
2023/05/03 08:02:13;;;;;;;21.15;6.88;;;;;;;;;;5081387;28;20480;-70
2023/05/03 08:04:38;;;;;;;14.40;7.18;;;;;;;;;;5070028;28;20035;-70
2023/05/03 08:07:04;;;;;;;19.20;7.25;;;;;;;;;;5076732;28;20120;-70
2023/05/03 08:09:29;;;;;;;19.23;7.22;;;;;;;;;;5067154;28;20046;-70
2023/05/03 08:11:55;;;;;;;19.92;7.47;;;;;;;;;;5066526;28;20556;-70
2023/05/03 08:14:21;;;;;;;16.52;7.13;;;;;;;;;;5076297;28;20152;-70
2023/05/03 08:16:47;;;;;;;20.33;7.25;;;;;;;;;;5078720;28;20066;-70
2023/05/03 08:19:12;;;;;;;16.83;6.75;;;;;;;;;;5090794;28;20036;-70
2023/05/03 08:21:38;;;;;;;17.50;7.10;;;;;;;;;;5088330;28;20816;-72
2023/05/03 08:24:05;;;;;;;19.60;6.72;;;;;;;;;;5071017;28;20584;-72
2023/05/03 08:26:31;;;;;;;17.83;7.40;;;;;;;;;;5080414;28;20646;-71
2023/05/03 08:28:57;;;;;;;17.75;8.00;;;;;;;;;;5076011;28;20070;-72
2023/05/03 08:31:22;;;;;;;19.42;7.18;;;;;;;;;;5065577;28;20059;-72
2023/05/03 08:33:48;;;;;;;17.02;7.30;;;;;;;;;;5067795;28;20079;-70
2023/05/03 08:36:13;;;;;;;17.35;7.30;;;;;;;;;;5079805;28;20040;-70
2023/05/03 08:38:42;;;;;;;18.20;8.35;;;;;;;;;;5067687;28;20245;-70
2023/05/03 08:41:21;;;;;;;15.98;7.68;;;;;;;;;;5081377;28;20819;-70
2023/05/03 08:43:53;;;;;;;16.20;7.03;;;;;;;;;;5080329;28;20028;-70
2023/05/03 08:46:18;;;;;;;19.60;8.15;;;;;;;;;;5067978;28;20032;-70
2023/05/03 08:48:51;;;;;;;18.40;8.02;;;;;;;;;;5081861;28;20428;-70
2023/05/03 08:51:17;;;;;;;21.15;7.72;;;;;;;;;;5079857;28;20120;-70
2023/05/03 08:53:42;;;;;;;22.05;8.70;;;;;;;;;;5081195;28;20066;-70
2023/05/03 08:56:09;;;;;;;18.85;7.68;;;;;;;;;;5079043;28;20505;-69
2023/05/03 08:58:36;;;;;;;24.63;8.98;;;;;;;;;;5082256;28;20131;-70
2023/05/03 09:01:06;;;;;;;17.58;7.32;;;;;;;;;;5082154;28;20692;-69
2023/05/03 09:03:32;;;;;;;17.73;7.50;;;;;;;;;;5072034;28;20036;-70
2023/05/03 09:06:00;;;;;;;18.20;7.45;;;;;;;;;;5084661;28;20024;-69
2023/05/03 09:08:30;;;;;;;16.58;7.97;;;;;;;;;;5085274;28;20604;-69
2023/05/03 09:10:56;;;;;;;17.92;8.00;;;;;;;;;;5083521;28;20044;-68
2023/05/03 09:13:30;;;;;;;19.67;8.45;;;;;;;;;;5086343;28;20026;-70
2023/05/03 09:15:57;;;;;;;23.45;8.10;;;;;;;;;;5086336;28;20084;-75
2023/05/03 09:18:25;;;;;;;16.90;7.55;;;;;;;;;;5083878;28;20036;-70
2023/05/03 09:20:51;;;;;;;21.05;7.18;;;;;;;;;;5077923;28;20115;-70
2023/05/03 09:23:19;;;;;;;23.25;7.63;;;;;;;;;;5085807;28;20173;-71
2023/05/03 09:25:50;;;;;;;15.13;6.88;;;;;;;;;;5085903;28;20035;-72
2023/05/03 09:28:16;;;;;;;18.63;7.90;;;;;;;;;;5072466;28;20429;-72
2023/05/03 09:30:43;;;;;;;18.58;7.50;;;;;;;;;;5082105;28;20039;-72
2023/05/03 09:33:10;;;;;;;18.90;7.95;;;;;;;;;;5078519;28;20544;-72
2023/05/03 09:35:36;;;;;;;15.43;7.28;;;;;;;;;;5082721;28;20469;-72
2023/05/03 09:38:02;;;;;;;15.07;7.07;;;;;;;;;;5082618;28;20063;-72
2023/05/03 09:40:28;;;;;;;15.75;7.07;;;;;;;;;;5087512;28;20047;-72
2023/05/03 09:43:15;;;;;;;21.58;7.75;;;;;;;;;;5095639;28;20032;-72
2023/05/03 09:45:40;;;;;;;22.05;7.75;;;;;;;;;;5079532;28;20475;-72
2023/05/03 09:48:07;;;;;;;15.70;7.15;;;;;;;;;;5086982;28;20504;-72
2023/05/03 09:50:36;;;;;;;20.23;7.80;;;;;;;;;;5085871;28;20032;-73
2023/05/03 09:53:03;;;;;;;16.25;7.40;;;;;;;;;;5085752;28;20035;-72
2023/05/03 09:55:37;;;;;;;15.25;7.10;;;;;;;;;;5069739;28;20021;-73
2023/05/03 09:58:07;;;;;;;18.45;7.25;;;;;;;;;;5075301;28;20044;-72
2023/05/03 10:00:42;;;;;;;16.45;6.60;;;;;;;;;;5083787;28;20032;-73
2023/05/03 10:03:11;;;;;;;20.85;7.68;;;;;;;;;;5083936;28;20051;-72
2023/05/03 10:05:46;;;;;;;17.42;7.72;;;;;;;;;;5083349;28;20075;-72
2023/05/03 10:08:17;;;;;;;15.57;6.68;;;;;;;;;;5082972;28;20115;-72
2023/05/03 10:10:44;;;;;;;14.82;6.22;;;;;;;;;;5084509;28;20039;-72
2023/05/03 10:13:11;;;;;;;16.02;7.40;;;;;;;;;;5080327;28;20131;-72
2023/05/03 10:15:38;;;;;;;21.35;6.53;;;;;;;;;;5075109;28;20036;-72
2023/05/03 10:18:07;;;;;;;15.98;6.15;;;;;;;;;;5083995;28;20036;-72
2023/05/03 10:20:44;;;;;;;20.27;6.93;;;;;;;;;;5070312;28;20035;-72
2023/05/03 10:23:11;;;;;;;18.08;7.22;;;;;;;;;;5082855;28;20038;-72
2023/05/03 10:25:38;;;;;;;16.40;6.93;;;;;;;;;;5083573;28;20032;-72
2023/05/03 10:28:08;;;;;;;12.48;6.70;;;;;;;;;;5082961;28;20749;-72
2023/05/03 10:30:38;;;;;;;21.25;6.93;;;;;;;;;;5080036;28;20544;-72
2023/05/03 10:33:10;;;;;;;19.02;7.63;;;;;;;;;;5075738;28;20563;-72
2023/05/03 10:35:38;;;;;;;13.98;6.78;;;;;;;;;;5083686;28;20043;-72
2023/05/03 10:38:13;;;;;;;14.90;7.10;;;;;;;;;;5080222;28;20112;-72
2023/05/03 10:40:43;;;;;;;18.23;7.38;;;;;;;;;;5074381;28;20078;-72
2023/05/03 10:43:30;;;;;;;13.88;6.32;;;;;;;;;;5061925;28;20051;-72
2023/05/03 10:46:00;;;;;;;15.98;6.70;;;;;;;;;;5084377;28;20462;-72
2023/05/03 10:48:27;;;;;;;14.95;6.30;;;;;;;;;;5082610;28;20060;-72
2023/05/03 10:50:54;;;;;;;18.63;6.90;;;;;;;;;;5077029;28;20571;-72
2023/05/03 10:53:35;;;;;;;14.45;6.85;;;;;;;;;;5078592;28;20093;-72
2023/05/03 10:56:06;;;;;;;17.10;7.30;;;;;;;;;;5083567;28;20135;-72
2023/05/03 10:58:35;;;;;;;16.58;7.25;;;;;;;;;;5083439;28;20105;-72
2023/05/03 11:01:03;;;;;;;17.10;6.72;;;;;;;;;;5083313;28;20106;-72
2023/05/03 11:03:49;;;;;;;18.38;7.88;;;;;;;;;;5084778;28;20032;-72
2023/05/03 11:06:31;;;;;;;15.25;6.60;;;;;;;;;;5089342;28;20056;-71
2023/05/03 11:08:57;;;;;;;13.38;6.72;;;;;;;;;;5081279;28;20046;-72
2023/05/03 11:11:22;;;;;;;17.88;7.75;;;;;;;;;;5081324;28;20032;-72
2023/05/03 11:13:49;;;;;;;13.38;7.13;;;;;;;;;;5081692;28;20019;-72
2023/05/03 11:16:15;;;;;;;24.88;8.52;;;;;;;;;;5082986;28;20927;-72
2023/05/03 11:18:40;;;;;;;17.98;7.28;;;;;;;;;;5080496;28;20037;-72
2023/05/03 11:21:06;;;;;;;17.38;7.57;;;;;;;;;;5079396;28;20478;-72
2023/05/03 11:23:31;;;;;;;16.10;7.53;;;;;;;;;;5071132;28;20047;-72
2023/05/03 11:25:57;;;;;;;15.82;7.65;;;;;;;;;;5072517;28;20036;-72
2023/05/03 11:28:23;;;;;;;15.75;7.30;;;;;;;;;;5079804;28;20028;-72
2023/05/03 11:30:49;;;;;;;16.88;7.35;;;;;;;;;;5065911;28;20036;-72
2023/05/03 11:33:15;;;;;;;14.93;6.38;;;;;;;;;;5081535;28;20040;-72
2023/05/03 11:35:41;;;;;;;17.63;7.07;;;;;;;;;;5081994;28;20040;-72
2023/05/03 11:38:07;;;;;;;16.23;7.68;;;;;;;;;;5077285;28;20026;-72
2023/05/03 11:40:32;;;;;;;14.82;6.80;;;;;;;;;;5071292;28;20462;-72
2023/05/03 11:42:58;;;;;;;18.90;7.40;;;;;;;;;;5082142;28;20116;-72
2023/05/03 11:45:45;;;;;;;16.20;7.85;;;;;;;;;;5081795;28;20109;-72
2023/05/03 11:48:11;;;;;;;18.13;7.38;;;;;;;;;;5082287;28;20107;-72
2023/05/03 11:50:50;;;;;;;15.13;7.93;;;;;;;;;;5079788;28;20036;-72
2023/05/03 11:53:17;;;;;;;14.80;7.07;;;;;;;;;;5084200;28;20040;-72
2023/05/03 11:55:48;;;;;;;15.70;7.70;;;;;;;;;;5083056;28;20382;-72
2023/05/03 11:58:23;;;;;;;19.33;8.68;;;;;;;;;;5079186;28;20501;-73
2023/05/03 12:00:50;;;;;;;15.82;7.57;;;;;;;;;;5082215;28;20047;-73
2023/05/03 12:03:20;;;;;;;15.95;7.32;;;;;;;;;;5075559;28;20473;-71
2023/05/03 12:05:46;;;;;;;17.08;7.50;;;;;;;;;;5080878;28;20044;-74
2023/05/03 12:08:12;;;;;;;23.45;8.43;;;;;;;;;;5082587;28;20043;-73
2023/05/03 12:10:38;;;;;;;18.95;7.95;;;;;;;;;;5082415;28;20036;-72
2023/05/03 12:13:04;;;;;;;14.93;7.78;;;;;;;;;;5080634;28;20036;-73
2023/05/03 12:15:32;;;;;;;16.60;7.57;;;;;;;;;;5082518;28;20032;-73
2023/05/03 12:17:59;;;;;;;17.08;6.95;;;;;;;;;;5080684;28;20513;-73
2023/05/03 12:20:27;;;;;;;19.27;7.95;;;;;;;;;;5076044;28;20058;-73
2023/05/03 12:22:55;;;;;;;15.35;7.35;;;;;;;;;;5081423;28;20036;-73
2023/05/03 12:25:21;;;;;;;17.52;7.63;;;;;;;;;;5068159;28;20718;-73
2023/05/03 12:27:47;;;;;;;15.95;7.75;;;;;;;;;;5093040;28;20051;-73
2023/05/03 12:30:13;;;;;;;14.85;7.07;;;;;;;;;;5087588;28;20664;-73
2023/05/03 12:32:38;;;;;;;16.20;7.85;;;;;;;;;;5081793;28;20040;-73
2023/05/03 12:35:05;;;;;;;18.30;7.00;;;;;;;;;;5087627;28;20020;-73
2023/05/03 12:37:31;;;;;;;14.30;7.45;;;;;;;;;;5084588;28;20024;-73
2023/05/03 12:39:56;;;;;;;18.88;7.57;;;;;;;;;;5072329;28;20031;-73
2023/05/03 12:42:22;;;;;;;16.10;7.30;;;;;;;;;;5084649;28;20113;-73
2023/05/03 12:44:47;;;;;;;15.85;7.18;;;;;;;;;;5079861;28;20509;-73
2023/05/03 12:47:12;;;;;;;13.90;6.22;;;;;;;;;;5081422;28;20413;-73
2023/05/03 12:49:38;;;;;;;16.58;7.13;;;;;;;;;;5080191;28;20030;-73
2023/05/03 12:52:03;;;;;;;15.98;7.30;;;;;;;;;;5082243;28;20097;-73
2023/05/03 12:54:29;;;;;;;15.23;6.47;;;;;;;;;;5085904;28;20775;-73
2023/05/03 12:56:54;;;;;;;16.35;6.50;;;;;;;;;;5084289;28;20032;-73
2023/05/03 12:59:20;;;;;;;12.45;6.53;;;;;;;;;;5084986;28;20094;-73
2023/05/03 13:01:45;;;;;;;18.38;7.20;;;;;;;;;;5080680;28;20145;-73
2023/05/03 13:04:11;;;;;;;12.80;6.55;;;;;;;;;;5076265;28;20064;-73
2023/05/03 13:06:37;;;;;;;12.90;6.60;;;;;;;;;;5084488;28;20529;-73
2023/05/03 13:09:04;;;;;;;16.45;6.40;;;;;;;;;;5083799;28;20062;-73
2023/05/03 13:11:30;;;;;;;15.95;6.93;;;;;;;;;;5086483;28;20044;-72
2023/05/03 13:13:56;;;;;;;12.48;6.53;;;;;;;;;;5084551;28;20020;-73
2023/05/03 13:16:23;;;;;;;15.65;7.18;;;;;;;;;;5085225;28;20038;-73
2023/05/03 13:18:53;;;;;;;13.65;6.80;;;;;;;;;;5084248;28;20058;-73
2023/05/03 13:21:19;;;;;;;14.43;6.45;;;;;;;;;;5085740;28;20089;-73
2023/05/03 13:23:44;;;;;;;17.05;6.80;;;;;;;;;;5084884;28;20028;-73
2023/05/03 13:26:10;;;;;;;14.57;5.97;;;;;;;;;;5086846;28;20028;-73
2023/05/03 13:28:35;;;;;;;16.95;8.48;;;;;;;;;;5085212;28;20071;-73
2023/05/03 13:31:01;;;;;;;23.08;9.98;;;;;;;;;;5085504;28;20047;-73
2023/05/03 13:33:28;;;;;;;16.73;8.52;;;;;;;;;;5085378;28;20047;-73
2023/05/03 13:35:53;;;;;;;15.60;7.93;;;;;;;;;;5084948;28;20067;-73
2023/05/03 13:38:19;;;;;;;17.02;7.68;;;;;;;;;;5081610;28;20048;-73
2023/05/03 13:40:45;;;;;;;15.20;7.53;;;;;;;;;;5080892;28;20046;-73
2023/05/03 13:43:10;;;;;;;15.15;7.32;;;;;;;;;;5084384;28;20695;-73
2023/05/03 13:45:35;;;;;;;11.93;6.53;;;;;;;;;;5079628;28;20157;-73
2023/05/03 13:48:01;;;;;;;14.15;7.55;;;;;;;;;;5087225;28;20786;-73
2023/05/03 13:50:29;;;;;;;13.80;7.45;;;;;;;;;;5091463;28;20073;-73
2023/05/03 13:52:55;;;;;;;12.52;7.95;;;;;;;;;;5077560;28;20020;-73
2023/05/03 13:55:21;;;;;;;13.38;7.60;;;;;;;;;;5077122;28;20576;-73
2023/05/03 13:57:46;;;;;;;14.35;8.00;;;;;;;;;;5085947;28;20066;-73
2023/05/03 14:00:12;;;;;;;11.40;7.35;;;;;;;;;;5084843;28;20052;-73
2023/05/03 14:02:38;;;;;;;12.25;7.30;;;;;;;;;;5086281;28;20050;-73
2023/05/03 14:05:04;;;;;;;14.10;7.25;;;;;;;;;;5085616;28;20036;-73
2023/05/03 14:07:30;;;;;;;14.10;7.50;;;;;;;;;;5084040;28;20396;-73
2023/05/03 14:09:56;;;;;;;13.05;7.95;;;;;;;;;;5080626;28;20515;-74
2023/05/03 14:12:22;;;;;;;15.02;7.75;;;;;;;;;;5082902;28;20036;-73
2023/05/03 14:14:47;;;;;;;14.35;7.70;;;;;;;;;;5085042;28;20628;-73
2023/05/03 14:17:13;;;;;;;12.73;6.85;;;;;;;;;;5079017;28;20036;-73
2023/05/03 14:19:38;;;;;;;15.18;7.22;;;;;;;;;;5084315;28;20695;-72
2023/05/03 14:22:04;;;;;;;14.63;7.20;;;;;;;;;;5075919;28;20047;-73
2023/05/03 14:24:29;;;;;;;12.07;6.97;;;;;;;;;;5080547;28;20032;-73
2023/05/03 14:26:55;;;;;;;15.80;8.45;;;;;;;;;;5082433;28;20036;-72
2023/05/03 14:29:20;;;;;;;14.93;8.02;;;;;;;;;;5082774;28;20032;-73
2023/05/03 14:31:46;;;;;;;18.13;7.93;;;;;;;;;;5084390;28;20028;-73